sensor_id;sensor_type;location;lat;lon;timestamp;P1;P4;P2;P0;N10;N4;N25;N1;N05;TS
62702;SPS30;66022;50.448;18.122;2023-11-19T00:04:24;54.31;;46.66;;;;;;;
62702;SPS30;66022;50.448;18.122;2023-11-19T00:08:52;54.31;;46.66;;;;;;;
62702;SPS30;66022;50.448;18.122;2023-11-19T00:13:20;64.87;;58.90;;;;;;;
62702;SPS30;66022;50.448;18.122;2023-11-19T00:17:48;64.87;;58.90;;;;;;;
62702;SPS30;66022;50.448;18.122;2023-11-19T00:22:17;38.03;;36.18;;;;;;;
62702;SPS30;66022;50.448;18.122;2023-11-19T00:26:44;38.03;;36.18;;;;;;;
62702;SPS30;66022;50.448;18.122;2023-11-19T00:31:12;42.08;;37.74;;;;;;;
62702;SPS30;66022;50.448;18.122;2023-11-19T00:35:40;42.08;;37.74;;;;;;;
62702;SPS30;66022;50.448;18.122;2023-11-19T00:40:09;42.08;;37.74;;;;;;;
62702;SPS30;66022;50.448;18.122;2023-11-19T00:44:36;40.16;;37.02;;;;;;;
62702;SPS30;66022;50.448;18.122;2023-11-19T00:49:04;40.16;;37.02;;;;;;;
62702;SPS30;66022;50.448;18.122;2023-11-19T00:53:32;44.36;;38.95;;;;;;;
62702;SPS30;66022;50.448;18.122;2023-11-19T00:58:01;44.36;;38.95;;;;;;;
62702;SPS30;66022;50.448;18.122;2023-11-19T01:02:28;49.80;;44.72;;;;;;;
62702;SPS30;66022;50.448;18.122;2023-11-19T01:06:59;49.80;;44.72;;;;;;;
62702;SPS30;66022;50.448;18.122;2023-11-19T01:11:25;44.79;;40.66;;;;;;;
62702;SPS30;66022;50.448;18.122;2023-11-19T01:15:53;44.79;;40.66;;;;;;;
62702;SPS30;66022;50.448;18.122;2023-11-19T01:20:21;46.89;;41.64;;;;;;;
62702;SPS30;66022;50.448;18.122;2023-11-19T01:24:48;46.89;;41.64;;;;;;;
62702;SPS30;66022;50.448;18.122;2023-11-19T01:29:16;46.89;;41.64;;;;;;;
62702;SPS30;66022;50.448;18.122;2023-11-19T01:33:45;50.10;;43.93;;;;;;;
62702;SPS30;66022;50.448;18.122;2023-11-19T01:38:12;50.10;;43.93;;;;;;;
62702;SPS30;66022;50.448;18.122;2023-11-19T01:42:41;47.09;;41.70;;;;;;;
62702;SPS30;66022;50.448;18.122;2023-11-19T01:47:09;47.09;;41.70;;;;;;;
62702;SPS30;66022;50.448;18.122;2023-11-19T01:51:37;43.91;;40.42;;;;;;;
62702;SPS30;66022;50.448;18.122;2023-11-19T01:56:05;43.91;;40.42;;;;;;;
62702;SPS30;66022;50.448;18.122;2023-11-19T02:00:33;53.28;;45.26;;;;;;;
62702;SPS30;66022;50.448;18.122;2023-11-19T02:05:01;53.28;;45.26;;;;;;;
62702;SPS30;66022;50.448;18.122;2023-11-19T02:09:29;53.28;;45.26;;;;;;;
62702;SPS30;66022;50.448;18.122;2023-11-19T02:13:57;46.39;;41.51;;;;;;;
62702;SPS30;66022;50.448;18.122;2023-11-19T02:18:25;46.39;;41.51;;;;;;;
62702;SPS30;66022;50.448;18.122;2023-11-19T02:22:53;52.30;;46.19;;;;;;;
62702;SPS30;66022;50.448;18.122;2023-11-19T02:31:49;50.81;;45.50;;;;;;;
62702;SPS30;66022;50.448;18.122;2023-11-19T02:36:17;50.81;;45.50;;;;;;;
62702;SPS30;66022;50.448;18.122;2023-11-19T02:40:45;54.72;;48.56;;;;;;;
62702;SPS30;66022;50.448;18.122;2023-11-19T02:45:13;54.72;;48.56;;;;;;;
62702;SPS30;66022;50.448;18.122;2023-11-19T02:49:41;54.72;;48.56;;;;;;;
62702;SPS30;66022;50.448;18.122;2023-11-19T02:54:09;60.15;;55.05;;;;;;;
62702;SPS30;66022;50.448;18.122;2023-11-19T02:58:37;60.15;;55.05;;;;;;;
62702;SPS30;66022;50.448;18.122;2023-11-19T03:03:05;48.10;;45.28;;;;;;;
62702;SPS30;66022;50.448;18.122;2023-11-19T03:07:33;48.10;;45.28;;;;;;;
62702;SPS30;66022;50.448;18.122;2023-11-19T03:12:01;55.23;;48.68;;;;;;;
62702;SPS30;66022;50.448;18.122;2023-11-19T03:16:29;55.23;;48.68;;;;;;;
62702;SPS30;66022;50.448;18.122;2023-11-19T03:20:57;49.23;;46.26;;;;;;;
62702;SPS30;66022;50.448;18.122;2023-11-19T03:25:25;49.23;;46.26;;;;;;;
62702;SPS30;66022;50.448;18.122;2023-11-19T03:29:53;49.23;;46.26;;;;;;;
62702;SPS30;66022;50.448;18.122;2023-11-19T03:34:21;48.41;;46.72;;;;;;;
62702;SPS30;66022;50.448;18.122;2023-11-19T03:38:49;48.41;;46.72;;;;;;;
62702;SPS30;66022;50.448;18.122;2023-11-19T03:43:17;71.33;;61.96;;;;;;;
62702;SPS30;66022;50.448;18.122;2023-11-19T03:47:45;71.33;;61.96;;;;;;;
62702;SPS30;66022;50.448;18.122;2023-11-19T03:52:13;69.86;;62.98;;;;;;;
62702;SPS30;66022;50.448;18.122;2023-11-19T03:56:41;69.86;;62.98;;;;;;;
62702;SPS30;66022;50.448;18.122;2023-11-19T04:01:12;72.78;;63.26;;;;;;;
62702;SPS30;66022;50.448;18.122;2023-11-19T04:05:37;72.78;;63.26;;;;;;;
62702;SPS30;66022;50.448;18.122;2023-11-19T04:10:05;72.78;;63.26;;;;;;;
62702;SPS30;66022;50.448;18.122;2023-11-19T04:14:33;75.26;;63.48;;;;;;;
62702;SPS30;66022;50.448;18.122;2023-11-19T04:19:01;75.26;;63.48;;;;;;;
62702;SPS30;66022;50.448;18.122;2023-11-19T04:23:29;66.49;;60.19;;;;;;;
62702;SPS30;66022;50.448;18.122;2023-11-19T04:27:57;66.49;;60.19;;;;;;;
62702;SPS30;66022;50.448;18.122;2023-11-19T04:32:25;68.23;;61.72;;;;;;;
62702;SPS30;66022;50.448;18.122;2023-11-19T04:36:53;68.23;;61.72;;;;;;;
62702;SPS30;66022;50.448;18.122;2023-11-19T04:41:23;75.16;;64.49;;;;;;;
62702;SPS30;66022;50.448;18.122;2023-11-19T04:45:54;75.16;;64.49;;;;;;;
62702;SPS30;66022;50.448;18.122;2023-11-19T04:50:17;75.16;;64.49;;;;;;;
62702;SPS30;66022;50.448;18.122;2023-11-19T04:54:45;66.37;;60.35;;;;;;;
62702;SPS30;66022;50.448;18.122;2023-11-19T04:59:16;66.37;;60.35;;;;;;;
62702;SPS30;66022;50.448;18.122;2023-11-19T05:03:41;65.09;;58.10;;;;;;;
62702;SPS30;66022;50.448;18.122;2023-11-19T05:08:09;65.09;;58.10;;;;;;;
62702;SPS30;66022;50.448;18.122;2023-11-19T05:12:39;62.14;;57.70;;;;;;;
62702;SPS30;66022;50.448;18.122;2023-11-19T05:17:05;62.14;;57.70;;;;;;;
62702;SPS30;66022;50.448;18.122;2023-11-19T05:21:33;72.96;;64.22;;;;;;;
62702;SPS30;66022;50.448;18.122;2023-11-19T05:26:01;72.96;;64.22;;;;;;;
62702;SPS30;66022;50.448;18.122;2023-11-19T05:30:29;63.87;;58.55;;;;;;;
62702;SPS30;66022;50.448;18.122;2023-11-19T05:34:57;63.87;;58.55;;;;;;;
62702;SPS30;66022;50.448;18.122;2023-11-19T05:39:25;63.87;;58.55;;;;;;;
62702;SPS30;66022;50.448;18.122;2023-11-19T05:43:53;82.72;;71.81;;;;;;;
62702;SPS30;66022;50.448;18.122;2023-11-19T05:48:21;82.72;;71.81;;;;;;;
62702;SPS30;66022;50.448;18.122;2023-11-19T05:52:49;70.58;;62.99;;;;;;;
62702;SPS30;66022;50.448;18.122;2023-11-19T05:57:17;70.58;;62.99;;;;;;;
62702;SPS30;66022;50.448;18.122;2023-11-19T06:01:45;60.53;;55.89;;;;;;;
62702;SPS30;66022;50.448;18.122;2023-11-19T06:06:13;60.53;;55.89;;;;;;;
62702;SPS30;66022;50.448;18.122;2023-11-19T06:10:41;57.01;;54.16;;;;;;;
62702;SPS30;66022;50.448;18.122;2023-11-19T06:15:09;57.01;;54.16;;;;;;;
62702;SPS30;66022;50.448;18.122;2023-11-19T06:19:37;57.01;;54.16;;;;;;;
62702;SPS30;66022;50.448;18.122;2023-11-19T06:24:05;67.83;;57.59;;;;;;;
62702;SPS30;66022;50.448;18.122;2023-11-19T06:28:33;67.83;;57.59;;;;;;;
62702;SPS30;66022;50.448;18.122;2023-11-19T06:33:01;63.24;;56.69;;;;;;;
62702;SPS30;66022;50.448;18.122;2023-11-19T06:37:29;63.24;;56.69;;;;;;;
62702;SPS30;66022;50.448;18.122;2023-11-19T06:41:57;61.07;;56.54;;;;;;;
62702;SPS30;66022;50.448;18.122;2023-11-19T06:46:25;61.07;;56.54;;;;;;;
62702;SPS30;66022;50.448;18.122;2023-11-19T06:50:53;53.91;;47.66;;;;;;;
62702;SPS30;66022;50.448;18.122;2023-11-19T06:55:21;53.91;;47.66;;;;;;;
62702;SPS30;66022;50.448;18.122;2023-11-19T06:59:49;53.91;;47.66;;;;;;;
62702;SPS30;66022;50.448;18.122;2023-11-19T07:04:17;54.04;;46.90;;;;;;;
62702;SPS30;66022;50.448;18.122;2023-11-19T07:08:45;54.04;;46.90;;;;;;;
62702;SPS30;66022;50.448;18.122;2023-11-19T07:13:13;49.50;;44.59;;;;;;;
62702;SPS30;66022;50.448;18.122;2023-11-19T07:17:42;49.50;;44.59;;;;;;;
62702;SPS30;66022;50.448;18.122;2023-11-19T07:22:14;69.46;;60.55;;;;;;;
62702;SPS30;66022;50.448;18.122;2023-11-19T07:26:40;69.46;;60.55;;;;;;;
62702;SPS30;66022;50.448;18.122;2023-11-19T07:31:05;58.43;;51.86;;;;;;;
62702;SPS30;66022;50.448;18.122;2023-11-19T07:35:33;58.43;;51.86;;;;;;;
62702;SPS30;66022;50.448;18.122;2023-11-19T07:40:01;58.43;;51.86;;;;;;;
62702;SPS30;66022;50.448;18.122;2023-11-19T07:44:29;54.50;;50.17;;;;;;;
62702;SPS30;66022;50.448;18.122;2023-11-19T07:48:57;54.50;;50.17;;;;;;;
62702;SPS30;66022;50.448;18.122;2023-11-19T07:53:25;47.97;;46.01;;;;;;;
62702;SPS30;66022;50.448;18.122;2023-11-19T07:57:53;47.97;;46.01;;;;;;;
62702;SPS30;66022;50.448;18.122;2023-11-19T08:02:21;40.25;;37.19;;;;;;;
62702;SPS30;66022;50.448;18.122;2023-11-19T08:06:49;40.25;;37.19;;;;;;;
62702;SPS30;66022;50.448;18.122;2023-11-19T08:11:17;48.74;;44.39;;;;;;;
62702;SPS30;66022;50.448;18.122;2023-11-19T08:15:45;48.74;;44.39;;;;;;;
62702;SPS30;66022;50.448;18.122;2023-11-19T08:20:13;48.74;;44.39;;;;;;;
62702;SPS30;66022;50.448;18.122;2023-11-19T08:24:41;49.40;;42.97;;;;;;;
62702;SPS30;66022;50.448;18.122;2023-11-19T08:29:09;49.40;;42.97;;;;;;;
62702;SPS30;66022;50.448;18.122;2023-11-19T08:33:37;58.97;;50.34;;;;;;;
62702;SPS30;66022;50.448;18.122;2023-11-19T08:38:05;58.97;;50.34;;;;;;;
62702;SPS30;66022;50.448;18.122;2023-11-19T08:42:33;69.81;;57.80;;;;;;;
62702;SPS30;66022;50.448;18.122;2023-11-19T08:47:01;69.81;;57.80;;;;;;;
62702;SPS30;66022;50.448;18.122;2023-11-19T08:51:29;55.16;;50.33;;;;;;;
62702;SPS30;66022;50.448;18.122;2023-11-19T08:55:57;55.16;;50.33;;;;;;;
62702;SPS30;66022;50.448;18.122;2023-11-19T09:00:25;43.58;;40.48;;;;;;;
62702;SPS30;66022;50.448;18.122;2023-11-19T09:04:53;43.58;;40.48;;;;;;;
62702;SPS30;66022;50.448;18.122;2023-11-19T09:09:21;43.58;;40.48;;;;;;;
62702;SPS30;66022;50.448;18.122;2023-11-19T09:13:49;50.29;;46.84;;;;;;;
62702;SPS30;66022;50.448;18.122;2023-11-19T09:18:17;50.29;;46.84;;;;;;;
62702;SPS30;66022;50.448;18.122;2023-11-19T09:22:45;47.23;;42.29;;;;;;;
62702;SPS30;66022;50.448;18.122;2023-11-19T09:27:13;47.23;;42.29;;;;;;;
62702;SPS30;66022;50.448;18.122;2023-11-19T09:31:41;37.51;;34.76;;;;;;;
62702;SPS30;66022;50.448;18.122;2023-11-19T09:36:09;37.51;;34.76;;;;;;;
62702;SPS30;66022;50.448;18.122;2023-11-19T09:40:37;26.39;;24.31;;;;;;;
62702;SPS30;66022;50.448;18.122;2023-11-19T09:45:05;26.39;;24.31;;;;;;;
62702;SPS30;66022;50.448;18.122;2023-11-19T09:49:33;26.39;;24.31;;;;;;;
62702;SPS30;66022;50.448;18.122;2023-11-19T09:54:06;27.10;;23.77;;;;;;;
62702;SPS30;66022;50.448;18.122;2023-11-19T09:58:29;27.10;;23.77;;;;;;;
62702;SPS30;66022;50.448;18.122;2023-11-19T10:02:57;18.85;;18.49;;;;;;;
62702;SPS30;66022;50.448;18.122;2023-11-19T10:07:25;18.85;;18.49;;;;;;;
62702;SPS30;66022;50.448;18.122;2023-11-19T10:11:53;19.33;;18.94;;;;;;;
62702;SPS30;66022;50.448;18.122;2023-11-19T10:16:24;19.33;;18.94;;;;;;;
62702;SPS30;66022;50.448;18.122;2023-11-19T10:20:49;19.23;;17.93;;;;;;;
62702;SPS30;66022;50.448;18.122;2023-11-19T10:29:48;19.23;;17.93;;;;;;;
62702;SPS30;66022;50.448;18.122;2023-11-19T10:34:23;18.56;;18.37;;;;;;;
62702;SPS30;66022;50.448;18.122;2023-11-19T10:38:41;18.56;;18.37;;;;;;;
62702;SPS30;66022;50.448;18.122;2023-11-19T10:43:09;21.26;;20.89;;;;;;;
62702;SPS30;66022;50.448;18.122;2023-11-19T10:47:37;21.26;;20.89;;;;;;;
62702;SPS30;66022;50.448;18.122;2023-11-19T10:52:05;23.96;;21.55;;;;;;;
62702;SPS30;66022;50.448;18.122;2023-11-19T10:56:33;23.96;;21.55;;;;;;;
62702;SPS30;66022;50.448;18.122;2023-11-19T11:01:01;32.84;;32.44;;;;;;;
62702;SPS30;66022;50.448;18.122;2023-11-19T11:05:32;32.84;;32.44;;;;;;;
62702;SPS30;66022;50.448;18.122;2023-11-19T11:09:57;32.84;;32.44;;;;;;;
62702;SPS30;66022;50.448;18.122;2023-11-19T11:14:25;24.72;;24.52;;;;;;;
62702;SPS30;66022;50.448;18.122;2023-11-19T11:18:53;24.72;;24.52;;;;;;;
62702;SPS30;66022;50.448;18.122;2023-11-19T11:27:56;22.62;;21.83;;;;;;;
62702;SPS30;66022;50.448;18.122;2023-11-19T11:37:31;21.99;;21.79;;;;;;;
62702;SPS30;66022;50.448;18.122;2023-11-19T11:45:41;26.89;;25.24;;;;;;;
62702;SPS30;66022;50.448;18.122;2023-11-19T11:50:10;26.89;;25.24;;;;;;;
62702;SPS30;66022;50.448;18.122;2023-11-19T11:54:37;24.36;;22.40;;;;;;;
62702;SPS30;66022;50.448;18.122;2023-11-19T11:59:23;24.36;;22.40;;;;;;;
62702;SPS30;66022;50.448;18.122;2023-11-19T12:03:33;19.92;;18.67;;;;;;;
62702;SPS30;66022;50.448;18.122;2023-11-19T12:08:01;19.92;;18.67;;;;;;;
62702;SPS30;66022;50.448;18.122;2023-11-19T12:12:29;15.28;;13.55;;;;;;;
62702;SPS30;66022;50.448;18.122;2023-11-19T12:17:02;15.28;;13.55;;;;;;;
62702;SPS30;66022;50.448;18.122;2023-11-19T12:21:29;12.25;;10.92;;;;;;;
62702;SPS30;66022;50.448;18.122;2023-11-19T12:25:57;12.25;;10.92;;;;;;;
62702;SPS30;66022;50.448;18.122;2023-11-19T12:30:22;11.06;;10.20;;;;;;;
62702;SPS30;66022;50.448;18.122;2023-11-19T12:34:49;11.06;;10.20;;;;;;;
62702;SPS30;66022;50.448;18.122;2023-11-19T12:39:17;11.06;;10.20;;;;;;;
62702;SPS30;66022;50.448;18.122;2023-11-19T12:43:45;10.11;;9.28;;;;;;;
62702;SPS30;66022;50.448;18.122;2023-11-19T12:48:13;10.11;;9.28;;;;;;;
62702;SPS30;66022;50.448;18.122;2023-11-19T12:52:41;10.32;;9.78;;;;;;;
62702;SPS30;66022;50.448;18.122;2023-11-19T12:57:09;10.32;;9.78;;;;;;;
62702;SPS30;66022;50.448;18.122;2023-11-19T13:01:37;15.23;;12.14;;;;;;;
62702;SPS30;66022;50.448;18.122;2023-11-19T13:06:06;15.23;;12.14;;;;;;;
62702;SPS30;66022;50.448;18.122;2023-11-19T13:10:54;8.45;;8.35;;;;;;;
62702;SPS30;66022;50.448;18.122;2023-11-19T13:15:01;8.45;;8.35;;;;;;;
62702;SPS30;66022;50.448;18.122;2023-11-19T13:19:29;8.45;;8.35;;;;;;;
62702;SPS30;66022;50.448;18.122;2023-11-19T13:23:57;16.41;;14.18;;;;;;;
62702;SPS30;66022;50.448;18.122;2023-11-19T13:28:25;16.41;;14.18;;;;;;;
62702;SPS30;66022;50.448;18.122;2023-11-19T13:32:57;11.41;;10.88;;;;;;;
62702;SPS30;66022;50.448;18.122;2023-11-19T13:37:21;11.41;;10.88;;;;;;;
62702;SPS30;66022;50.448;18.122;2023-11-19T13:41:49;12.35;;11.73;;;;;;;
62702;SPS30;66022;50.448;18.122;2023-11-19T13:46:17;12.35;;11.73;;;;;;;
62702;SPS30;66022;50.448;18.122;2023-11-19T13:50:45;17.34;;16.44;;;;;;;
62702;SPS30;66022;50.448;18.122;2023-11-19T13:55:13;17.34;;16.44;;;;;;;
62702;SPS30;66022;50.448;18.122;2023-11-19T13:59:41;17.34;;16.44;;;;;;;
62702;SPS30;66022;50.448;18.122;2023-11-19T14:04:09;24.06;;20.47;;;;;;;
62702;SPS30;66022;50.448;18.122;2023-11-19T14:08:37;24.06;;20.47;;;;;;;
62702;SPS30;66022;50.448;18.122;2023-11-19T14:13:07;12.69;;12.60;;;;;;;
62702;SPS30;66022;50.448;18.122;2023-11-19T14:17:37;12.69;;12.60;;;;;;;
62702;SPS30;66022;50.448;18.122;2023-11-19T14:22:01;19.54;;17.00;;;;;;;
62702;SPS30;66022;50.448;18.122;2023-11-19T14:26:29;19.54;;17.00;;;;;;;
62702;SPS30;66022;50.448;18.122;2023-11-19T14:30:57;19.42;;16.90;;;;;;;
62702;SPS30;66022;50.448;18.122;2023-11-19T14:35:28;19.42;;16.90;;;;;;;
62702;SPS30;66022;50.448;18.122;2023-11-19T14:39:53;19.42;;16.90;;;;;;;
62702;SPS30;66022;50.448;18.122;2023-11-19T14:44:21;15.59;;15.37;;;;;;;
62702;SPS30;66022;50.448;18.122;2023-11-19T14:48:57;15.59;;15.37;;;;;;;
62702;SPS30;66022;50.448;18.122;2023-11-19T14:53:17;17.44;;16.87;;;;;;;
62702;SPS30;66022;50.448;18.122;2023-11-19T14:57:45;17.44;;16.87;;;;;;;
62702;SPS30;66022;50.448;18.122;2023-11-19T15:02:13;15.21;;13.99;;;;;;;
62702;SPS30;66022;50.448;18.122;2023-11-19T15:06:41;15.21;;13.99;;;;;;;
62702;SPS30;66022;50.448;18.122;2023-11-19T15:11:09;19.47;;17.79;;;;;;;
62702;SPS30;66022;50.448;18.122;2023-11-19T15:15:40;19.47;;17.79;;;;;;;
62702;SPS30;66022;50.448;18.122;2023-11-19T15:20:05;19.47;;17.79;;;;;;;
62702;SPS30;66022;50.448;18.122;2023-11-19T15:24:33;19.11;;17.67;;;;;;;
62702;SPS30;66022;50.448;18.122;2023-11-19T15:29:01;19.11;;17.67;;;;;;;
62702;SPS30;66022;50.448;18.122;2023-11-19T15:33:29;16.42;;15.62;;;;;;;
62702;SPS30;66022;50.448;18.122;2023-11-19T15:37:57;16.42;;15.62;;;;;;;
62702;SPS30;66022;50.448;18.122;2023-11-19T15:42:25;21.37;;20.33;;;;;;;
62702;SPS30;66022;50.448;18.122;2023-11-19T15:46:53;21.37;;20.33;;;;;;;
62702;SPS30;66022;50.448;18.122;2023-11-19T15:51:21;19.96;;19.49;;;;;;;
62702;SPS30;66022;50.448;18.122;2023-11-19T15:55:49;19.96;;19.49;;;;;;;
62702;SPS30;66022;50.448;18.122;2023-11-19T16:00:17;19.96;;19.49;;;;;;;
62702;SPS30;66022;50.448;18.122;2023-11-19T16:04:45;16.68;;16.31;;;;;;;
62702;SPS30;66022;50.448;18.122;2023-11-19T16:09:13;16.68;;16.31;;;;;;;
62702;SPS30;66022;50.448;18.122;2023-11-19T16:13:41;36.55;;31.74;;;;;;;
62702;SPS30;66022;50.448;18.122;2023-11-19T16:18:09;36.55;;31.74;;;;;;;
62702;SPS30;66022;50.448;18.122;2023-11-19T16:22:37;18.73;;17.92;;;;;;;
62702;SPS30;66022;50.448;18.122;2023-11-19T16:27:05;18.73;;17.92;;;;;;;
62702;SPS30;66022;50.448;18.122;2023-11-19T16:31:33;21.27;;20.01;;;;;;;
62702;SPS30;66022;50.448;18.122;2023-11-19T16:36:01;21.27;;20.01;;;;;;;
62702;SPS30;66022;50.448;18.122;2023-11-19T16:40:29;19.23;;16.82;;;;;;;
62702;SPS30;66022;50.448;18.122;2023-11-19T16:44:57;19.23;;16.82;;;;;;;
62702;SPS30;66022;50.448;18.122;2023-11-19T16:49:25;19.23;;16.82;;;;;;;
62702;SPS30;66022;50.448;18.122;2023-11-19T16:53:53;17.23;;16.56;;;;;;;
62702;SPS30;66022;50.448;18.122;2023-11-19T16:58:21;17.23;;16.56;;;;;;;
62702;SPS30;66022;50.448;18.122;2023-11-19T17:02:49;21.34;;18.65;;;;;;;
62702;SPS30;66022;50.448;18.122;2023-11-19T17:07:17;21.34;;18.65;;;;;;;
62702;SPS30;66022;50.448;18.122;2023-11-19T17:11:45;27.14;;25.78;;;;;;;
62702;SPS30;66022;50.448;18.122;2023-11-19T17:16:13;27.14;;25.78;;;;;;;
62702;SPS30;66022;50.448;18.122;2023-11-19T17:20:41;15.27;;14.96;;;;;;;
62702;SPS30;66022;50.448;18.122;2023-11-19T17:25:09;15.27;;14.96;;;;;;;
62702;SPS30;66022;50.448;18.122;2023-11-19T17:29:37;15.27;;14.96;;;;;;;
62702;SPS30;66022;50.448;18.122;2023-11-19T17:34:08;20.41;;19.30;;;;;;;
62702;SPS30;66022;50.448;18.122;2023-11-19T17:38:33;20.41;;19.30;;;;;;;
62702;SPS30;66022;50.448;18.122;2023-11-19T17:43:01;13.30;;12.98;;;;;;;
62702;SPS30;66022;50.448;18.122;2023-11-19T17:47:29;13.30;;12.98;;;;;;;
62702;SPS30;66022;50.448;18.122;2023-11-19T17:51:57;16.45;;15.25;;;;;;;
62702;SPS30;66022;50.448;18.122;2023-11-19T17:56:25;16.45;;15.25;;;;;;;
62702;SPS30;66022;50.448;18.122;2023-11-19T18:00:53;16.89;;15.63;;;;;;;
62702;SPS30;66022;50.448;18.122;2023-11-19T18:05:21;16.89;;15.63;;;;;;;
62702;SPS30;66022;50.448;18.122;2023-11-19T18:09:49;16.89;;15.63;;;;;;;
62702;SPS30;66022;50.448;18.122;2023-11-19T18:14:17;24.02;;21.59;;;;;;;
62702;SPS30;66022;50.448;18.122;2023-11-19T18:18:45;24.02;;21.59;;;;;;;
62702;SPS30;66022;50.448;18.122;2023-11-19T18:23:13;18.68;;18.22;;;;;;;
62702;SPS30;66022;50.448;18.122;2023-11-19T18:27:41;18.68;;18.22;;;;;;;
62702;SPS30;66022;50.448;18.122;2023-11-19T18:32:09;35.23;;31.24;;;;;;;
62702;SPS30;66022;50.448;18.122;2023-11-19T18:36:37;35.23;;31.24;;;;;;;
62702;SPS30;66022;50.448;18.122;2023-11-19T18:41:05;31.75;;30.25;;;;;;;
62702;SPS30;66022;50.448;18.122;2023-11-19T18:45:33;31.75;;30.25;;;;;;;
62702;SPS30;66022;50.448;18.122;2023-11-19T18:50:01;31.75;;30.25;;;;;;;
62702;SPS30;66022;50.448;18.122;2023-11-19T18:54:29;27.70;;25.56;;;;;;;
62702;SPS30;66022;50.448;18.122;2023-11-19T18:58:57;27.70;;25.56;;;;;;;
62702;SPS30;66022;50.448;18.122;2023-11-19T19:03:25;18.57;;18.04;;;;;;;
62702;SPS30;66022;50.448;18.122;2023-11-19T19:07:53;18.57;;18.04;;;;;;;
62702;SPS30;66022;50.448;18.122;2023-11-19T19:12:21;23.74;;22.21;;;;;;;
62702;SPS30;66022;50.448;18.122;2023-11-19T19:16:49;23.74;;22.21;;;;;;;
62702;SPS30;66022;50.448;18.122;2023-11-19T19:21:17;36.38;;34.40;;;;;;;
62702;SPS30;66022;50.448;18.122;2023-11-19T19:25:45;36.38;;34.40;;;;;;;
62702;SPS30;66022;50.448;18.122;2023-11-19T19:30:13;36.38;;34.40;;;;;;;
62702;SPS30;66022;50.448;18.122;2023-11-19T19:34:41;24.92;;24.55;;;;;;;
62702;SPS30;66022;50.448;18.122;2023-11-19T19:39:09;24.92;;24.55;;;;;;;
62702;SPS30;66022;50.448;18.122;2023-11-19T19:43:37;33.01;;30.00;;;;;;;
62702;SPS30;66022;50.448;18.122;2023-11-19T19:48:05;33.01;;30.00;;;;;;;
62702;SPS30;66022;50.448;18.122;2023-11-19T19:52:34;24.61;;23.16;;;;;;;
62702;SPS30;66022;50.448;18.122;2023-11-19T19:57:01;24.61;;23.16;;;;;;;
62702;SPS30;66022;50.448;18.122;2023-11-19T20:01:30;27.98;;25.89;;;;;;;
62702;SPS30;66022;50.448;18.122;2023-11-19T20:05:58;27.98;;25.89;;;;;;;
62702;SPS30;66022;50.448;18.122;2023-11-19T20:10:25;26.41;;24.90;;;;;;;
62702;SPS30;66022;50.448;18.122;2023-11-19T20:14:53;26.41;;24.90;;;;;;;
62702;SPS30;66022;50.448;18.122;2023-11-19T20:19:21;26.41;;24.90;;;;;;;
62702;SPS30;66022;50.448;18.122;2023-11-19T20:23:50;33.39;;29.85;;;;;;;
62702;SPS30;66022;50.448;18.122;2023-11-19T20:28:17;33.39;;29.85;;;;;;;
62702;SPS30;66022;50.448;18.122;2023-11-19T20:32:45;29.05;;27.53;;;;;;;
62702;SPS30;66022;50.448;18.122;2023-11-19T20:37:13;29.05;;27.53;;;;;;;
62702;SPS30;66022;50.448;18.122;2023-11-19T20:41:41;20.69;;19.91;;;;;;;
62702;SPS30;66022;50.448;18.122;2023-11-19T20:46:09;20.69;;19.91;;;;;;;
62702;SPS30;66022;50.448;18.122;2023-11-19T20:50:37;21.95;;20.83;;;;;;;
62702;SPS30;66022;50.448;18.122;2023-11-19T20:55:05;21.95;;20.83;;;;;;;
62702;SPS30;66022;50.448;18.122;2023-11-19T20:59:33;21.95;;20.83;;;;;;;
62702;SPS30;66022;50.448;18.122;2023-11-19T21:04:01;20.24;;19.23;;;;;;;
62702;SPS30;66022;50.448;18.122;2023-11-19T21:08:29;20.24;;19.23;;;;;;;
62702;SPS30;66022;50.448;18.122;2023-11-19T21:12:57;26.05;;25.06;;;;;;;
62702;SPS30;66022;50.448;18.122;2023-11-19T21:17:25;26.05;;25.06;;;;;;;
62702;SPS30;66022;50.448;18.122;2023-11-19T21:21:53;26.88;;25.88;;;;;;;
62702;SPS30;66022;50.448;18.122;2023-11-19T21:26:21;26.88;;25.88;;;;;;;
62702;SPS30;66022;50.448;18.122;2023-11-19T21:30:49;24.34;;23.62;;;;;;;
62702;SPS30;66022;50.448;18.122;2023-11-19T21:35:18;24.34;;23.62;;;;;;;
62702;SPS30;66022;50.448;18.122;2023-11-19T21:39:45;24.34;;23.62;;;;;;;
62702;SPS30;66022;50.448;18.122;2023-11-19T21:44:13;23.58;;22.70;;;;;;;
62702;SPS30;66022;50.448;18.122;2023-11-19T21:48:41;23.58;;22.70;;;;;;;
62702;SPS30;66022;50.448;18.122;2023-11-19T21:53:09;21.32;;20.72;;;;;;;
62702;SPS30;66022;50.448;18.122;2023-11-19T21:57:37;21.32;;20.72;;;;;;;
62702;SPS30;66022;50.448;18.122;2023-11-19T22:02:05;25.68;;23.14;;;;;;;
62702;SPS30;66022;50.448;18.122;2023-11-19T22:06:33;25.68;;23.14;;;;;;;
62702;SPS30;66022;50.448;18.122;2023-11-19T22:11:01;22.45;;21.46;;;;;;;
62702;SPS30;66022;50.448;18.122;2023-11-19T22:15:29;22.45;;21.46;;;;;;;
62702;SPS30;66022;50.448;18.122;2023-11-19T22:19:57;22.45;;21.46;;;;;;;
62702;SPS30;66022;50.448;18.122;2023-11-19T22:24:25;26.68;;23.94;;;;;;;
62702;SPS30;66022;50.448;18.122;2023-11-19T22:28:53;26.68;;23.94;;;;;;;
62702;SPS30;66022;50.448;18.122;2023-11-19T22:33:21;22.87;;22.79;;;;;;;
62702;SPS30;66022;50.448;18.122;2023-11-19T22:37:50;22.87;;22.79;;;;;;;
62702;SPS30;66022;50.448;18.122;2023-11-19T22:42:18;25.06;;22.96;;;;;;;
62702;SPS30;66022;50.448;18.122;2023-11-19T22:46:46;25.06;;22.96;;;;;;;
62702;SPS30;66022;50.448;18.122;2023-11-19T22:51:14;20.62;;19.27;;;;;;;
62702;SPS30;66022;50.448;18.122;2023-11-19T22:55:41;20.62;;19.27;;;;;;;
62702;SPS30;66022;50.448;18.122;2023-11-19T23:00:10;20.62;;19.27;;;;;;;
62702;SPS30;66022;50.448;18.122;2023-11-19T23:04:38;18.58;;17.47;;;;;;;
62702;SPS30;66022;50.448;18.122;2023-11-19T23:09:05;18.58;;17.47;;;;;;;
62702;SPS30;66022;50.448;18.122;2023-11-19T23:13:34;16.98;;16.65;;;;;;;
62702;SPS30;66022;50.448;18.122;2023-11-19T23:18:02;16.98;;16.65;;;;;;;
62702;SPS30;66022;50.448;18.122;2023-11-19T23:22:30;18.10;;17.23;;;;;;;
62702;SPS30;66022;50.448;18.122;2023-11-19T23:26:57;18.10;;17.23;;;;;;;
62702;SPS30;66022;50.448;18.122;2023-11-19T23:31:25;16.80;;15.87;;;;;;;
62702;SPS30;66022;50.448;18.122;2023-11-19T23:35:56;16.80;;15.87;;;;;;;
62702;SPS30;66022;50.448;18.122;2023-11-19T23:40:21;17.58;;16.62;;;;;;;
62702;SPS30;66022;50.448;18.122;2023-11-19T23:44:49;17.58;;16.62;;;;;;;
62702;SPS30;66022;50.448;18.122;2023-11-19T23:49:17;17.58;;16.62;;;;;;;
62702;SPS30;66022;50.448;18.122;2023-11-19T23:53:45;17.44;;16.20;;;;;;;
62702;SPS30;66022;50.448;18.122;2023-11-19T23:58:13;17.44;;16.20;;;;;;;
